createdAt,value
2023-01-19T00:01:38.105Z,0.85
2023-01-19T00:04:08.498Z,0.73
2023-01-19T00:06:36.208Z,1.15
2023-01-19T00:09:02.878Z,1.10
2023-01-19T00:11:32.554Z,0.81
2023-01-19T00:14:02.556Z,0.93
2023-01-19T00:16:33.244Z,0.95
2023-01-19T00:19:00.065Z,1.07
2023-01-19T00:21:36.556Z,1.05
2023-01-19T00:24:07.625Z,1.14
2023-01-19T00:26:34.365Z,1.07
2023-01-19T00:29:03.043Z,1.22
2023-01-19T00:31:30.402Z,0.89
2023-01-19T00:33:58.963Z,1.12
2023-01-19T00:36:26.576Z,0.94
2023-01-19T00:38:56.746Z,0.90
2023-01-19T00:41:45.952Z,0.80
2023-01-19T00:44:13.881Z,0.83
2023-01-19T00:46:41.284Z,0.76
2023-01-19T00:49:09.260Z,0.77
2023-01-19T00:51:36.180Z,0.97
2023-01-19T00:54:07.611Z,0.99
2023-01-19T00:56:36.049Z,1.15
2023-01-19T00:59:06.683Z,1.07
2023-01-19T01:01:45.934Z,1.11
2023-01-19T01:04:14.290Z,1.14
2023-01-19T01:06:40.854Z,0.79
2023-01-19T01:09:12.107Z,1.01
2023-01-19T01:11:45.303Z,1.02
2023-01-19T01:14:12.726Z,1.25
2023-01-19T01:16:39.650Z,1.03
2023-01-19T01:19:06.334Z,1.15
2023-01-19T01:21:34.787Z,1.28
2023-01-19T01:24:01.694Z,1.21
2023-01-19T01:26:28.415Z,1.16
2023-01-19T01:28:55.019Z,1.25
2023-01-19T01:31:22.227Z,1.08
2023-01-19T01:33:48.920Z,1.09
2023-01-19T01:36:15.478Z,1.01
2023-01-19T01:38:43.347Z,0.95
2023-01-19T01:41:12.567Z,0.90
2023-01-19T01:43:45.007Z,0.76
2023-01-19T01:46:12.460Z,0.84
2023-01-19T01:48:41.201Z,1.09
2023-01-19T01:51:29.650Z,0.94
2023-01-19T01:54:08.464Z,1.05
2023-01-19T01:56:36.649Z,1.15
2023-01-19T01:59:06.903Z,1.16
2023-01-19T02:04:49.687Z,1.08
2023-01-19T02:07:40.723Z,1.23
2023-01-19T02:10:29.030Z,1.35
2023-01-19T02:13:24.745Z,1.59
2023-01-19T02:16:00.037Z,1.73
2023-01-19T02:18:55.782Z,1.95
2023-01-19T02:21:38.345Z,1.89
2023-01-19T02:24:06.013Z,1.64
2023-01-19T02:26:44.809Z,1.77
2023-01-19T02:29:21.479Z,1.65
2023-01-19T02:34:30.754Z,1.62
2023-01-19T02:37:08.295Z,1.72
2023-01-19T02:39:39.134Z,1.87
2023-01-19T02:42:12.691Z,1.68
2023-01-19T02:44:44.241Z,1.69
2023-01-19T02:47:18.912Z,2.02
2023-01-19T02:50:00.186Z,1.83
2023-01-19T02:52:33.218Z,1.54
2023-01-19T02:55:18.687Z,1.77
2023-01-19T02:57:53.281Z,1.97
2023-01-19T03:00:24.157Z,1.96
2023-01-19T03:03:10.314Z,1.73
2023-01-19T03:05:50.832Z,2.03
2023-01-19T03:08:23.531Z,1.92
2023-01-19T03:10:56.960Z,1.75
2023-01-19T03:13:31.100Z,1.96
2023-01-19T03:16:05.577Z,1.90
2023-01-19T03:18:33.896Z,1.88
2023-01-19T03:21:03.116Z,2.03
2023-01-19T03:23:32.038Z,2.00
2023-01-19T03:26:00.221Z,1.85
2023-01-19T03:28:28.898Z,2.08
2023-01-19T03:31:12.803Z,1.86
2023-01-19T03:33:42.077Z,1.97
2023-01-19T03:36:13.052Z,1.92
2023-01-19T03:38:42.441Z,2.06
2023-01-19T03:41:11.609Z,2.19
2023-01-19T03:43:39.924Z,1.96
2023-01-19T03:46:07.380Z,2.12
2023-01-19T03:48:34.857Z,2.25
2023-01-19T03:51:06.873Z,2.06
2023-01-19T03:53:33.534Z,2.04
2023-01-19T03:56:00.382Z,1.87
2023-01-19T03:58:27.187Z,1.97
2023-01-19T04:00:53.977Z,1.98
2023-01-19T04:03:20.588Z,1.72
2023-01-19T04:05:47.427Z,1.48
2023-01-19T04:08:14.080Z,1.54
2023-01-19T04:10:40.707Z,1.68
2023-01-19T04:13:07.357Z,1.54
2023-01-19T04:15:34.073Z,1.85
2023-01-19T04:18:01.153Z,1.80
2023-01-19T04:20:28.339Z,1.76
2023-01-19T04:23:01.540Z,1.82
2023-01-19T04:25:28.837Z,1.83
2023-01-19T04:27:58.417Z,1.98
2023-01-19T04:30:27.873Z,1.98
2023-01-19T04:32:56.359Z,1.81
2023-01-19T04:35:23.769Z,1.98
2023-01-19T04:37:50.426Z,2.08
2023-01-19T04:40:17.178Z,2.01
2023-01-19T04:42:45.055Z,1.85
2023-01-19T04:45:12.304Z,1.85
2023-01-19T04:47:39.290Z,1.69
2023-01-19T04:50:07.041Z,1.81
2023-01-19T04:52:36.747Z,1.97
2023-01-19T04:55:06.856Z,1.74
2023-01-19T04:57:33.626Z,1.86
2023-01-19T05:00:00.221Z,2.05
2023-01-19T05:02:29.093Z,1.98
2023-01-19T05:05:01.048Z,1.92
2023-01-19T05:07:33.641Z,1.97
2023-01-19T05:10:01.699Z,1.86
2023-01-19T05:12:29.031Z,2.07
2023-01-19T05:15:18.698Z,2.23
2023-01-19T05:17:48.065Z,1.82
2023-01-19T05:20:27.730Z,1.89
2023-01-19T05:22:54.431Z,2.02
2023-01-19T05:25:20.956Z,1.62
2023-01-19T05:27:56.711Z,1.77
2023-01-19T05:30:23.324Z,1.65
2023-01-19T05:32:58.354Z,1.39
2023-01-19T05:35:35.584Z,1.36
2023-01-19T05:38:03.888Z,1.30
2023-01-19T05:40:30.892Z,1.39
2023-01-19T05:43:02.305Z,1.64
2023-01-19T05:45:29.907Z,1.67
2023-01-19T05:47:57.383Z,1.51
2023-01-19T05:50:25.354Z,1.21
2023-01-19T05:52:57.438Z,1.31
2023-01-19T05:55:26.300Z,1.29
2023-01-19T05:57:54.075Z,1.44
2023-01-19T06:00:21.243Z,1.16
2023-01-19T06:02:49.541Z,1.26
2023-01-19T06:05:16.907Z,1.34
2023-01-19T06:07:45.948Z,1.54
2023-01-19T06:10:18.696Z,1.59
2023-01-19T06:12:46.365Z,1.67
2023-01-19T06:15:14.501Z,1.72
2023-01-19T06:17:41.261Z,1.42
2023-01-19T06:20:08.252Z,1.33
2023-01-19T06:22:35.345Z,1.37
2023-01-19T06:25:05.751Z,1.37
2023-01-19T06:27:32.837Z,1.42
2023-01-19T06:29:59.632Z,1.64
2023-01-19T06:32:26.874Z,1.43
2023-01-19T06:34:54.179Z,1.36
2023-01-19T06:37:21.550Z,1.47
2023-01-19T06:39:48.458Z,1.44
2023-01-19T06:42:15.517Z,1.51
2023-01-19T06:44:49.467Z,1.76
2023-01-19T06:47:16.690Z,1.86
2023-01-19T06:49:43.865Z,1.86
2023-01-19T06:52:17.683Z,1.97
2023-01-19T06:54:45.466Z,1.72
2023-01-19T06:57:13.225Z,1.90
2023-01-19T06:59:40.032Z,1.93
2023-01-19T07:02:27.557Z,2.02
2023-01-19T07:04:53.421Z,1.87
2023-01-19T07:07:20.021Z,2.04
2023-01-19T07:09:46.645Z,2.24
2023-01-19T07:12:14.903Z,2.49
2023-01-19T07:14:42.504Z,2.34
2023-01-19T07:17:09.207Z,1.96
2023-01-19T07:19:36.137Z,2.23
2023-01-19T07:22:03.278Z,2.11
2023-01-19T07:24:34.260Z,1.90
2023-01-19T07:27:01.018Z,1.88
2023-01-19T07:29:27.696Z,1.91
2023-01-19T07:31:54.814Z,1.95
2023-01-19T07:34:21.662Z,1.99
2023-01-19T07:36:48.583Z,2.07
2023-01-19T07:39:15.190Z,2.09
2023-01-19T07:41:41.870Z,2.03
2023-01-19T07:44:08.894Z,2.31
2023-01-19T07:46:38.625Z,2.05
2023-01-19T07:49:06.284Z,2.01
2023-01-19T07:51:32.941Z,2.06
2023-01-19T07:53:59.602Z,2.15
2023-01-19T07:56:27.898Z,2.05
2023-01-19T07:58:54.766Z,2.09
2023-01-19T08:01:21.798Z,1.95
2023-01-19T08:03:49.100Z,2.15
2023-01-19T08:06:22.993Z,2.11
2023-01-19T08:08:49.863Z,1.97
2023-01-19T08:11:16.890Z,2.28
2023-01-19T08:13:46.589Z,2.29
2023-01-19T08:16:13.253Z,2.48
2023-01-19T08:18:39.966Z,2.66
2023-01-19T08:21:06.727Z,2.78
2023-01-19T08:23:33.356Z,2.80
2023-01-19T08:26:00.138Z,2.75
2023-01-19T08:28:26.752Z,2.69
2023-01-19T08:30:56.440Z,2.83
2023-01-19T08:33:25.276Z,3.07
2023-01-19T08:35:53.211Z,3.21
2023-01-19T08:38:20.178Z,2.99
2023-01-19T08:40:46.786Z,3.06
2023-01-19T08:43:15.321Z,3.24
2023-01-19T08:45:48.217Z,3.39
2023-01-19T08:48:15.903Z,3.53
2023-01-19T08:50:42.535Z,3.60
2023-01-19T08:53:10.073Z,3.52
2023-01-19T08:55:37.345Z,3.65
2023-01-19T08:58:04.618Z,3.76
2023-01-19T09:00:35.347Z,3.83
2023-01-19T09:03:04.170Z,3.73
2023-01-19T09:05:38.858Z,3.73
2023-01-19T09:08:08.216Z,3.85
2023-01-19T09:10:38.096Z,3.88
2023-01-19T09:13:05.842Z,3.83
2023-01-19T09:15:34.046Z,3.66
2023-01-19T09:18:01.149Z,3.98
2023-01-19T09:20:31.148Z,3.63
2023-01-19T09:22:58.449Z,3.82
2023-01-19T09:25:25.278Z,4.00
2023-01-19T09:27:52.181Z,4.03
2023-01-19T09:30:19.198Z,3.93
2023-01-19T09:32:45.884Z,4.15
2023-01-19T09:35:12.680Z,4.12
2023-01-19T09:37:45.734Z,4.44
2023-01-19T09:40:12.653Z,4.26
2023-01-19T09:42:51.221Z,4.58
2023-01-19T09:45:20.216Z,4.81
2023-01-19T09:47:48.667Z,4.64
2023-01-19T09:50:26.351Z,4.40
2023-01-19T09:53:01.526Z,4.93
2023-01-19T09:55:32.525Z,4.92
2023-01-19T09:57:59.604Z,5.19
2023-01-19T10:00:28.869Z,5.28
2023-01-19T10:02:55.563Z,5.38
2023-01-19T10:05:42.469Z,5.46
2023-01-19T10:08:27.941Z,6.22
2023-01-19T10:10:55.502Z,6.53
2023-01-19T10:13:30.319Z,7.10
2023-01-19T10:16:15.876Z,7.60
2023-01-19T10:18:51.684Z,8.25
2023-01-19T10:21:38.596Z,7.97
2023-01-19T10:24:12.120Z,7.29
2023-01-19T10:26:42.622Z,6.45
2023-01-19T10:29:18.219Z,6.08
2023-01-19T10:31:46.158Z,5.20
2023-01-19T10:34:20.937Z,5.53
2023-01-19T10:36:52.540Z,5.65
2023-01-19T10:39:19.299Z,5.10
2023-01-19T10:41:49.349Z,4.62
2023-01-19T10:44:36.276Z,4.92
2023-01-19T10:47:04.749Z,4.86
2023-01-19T10:49:37.542Z,4.59
2023-01-19T10:52:06.064Z,4.71
2023-01-19T10:54:34.054Z,4.47
2023-01-19T10:57:05.194Z,4.51
2023-01-19T10:59:34.913Z,4.37
2023-01-19T11:02:17.958Z,4.47
2023-01-19T11:04:50.160Z,4.36
2023-01-19T11:07:22.203Z,4.28
2023-01-19T11:09:49.198Z,4.69
2023-01-19T11:12:20.716Z,4.54
2023-01-19T11:14:47.781Z,4.82
2023-01-19T11:17:25.472Z,4.64
2023-01-19T11:19:56.259Z,4.58
2023-01-19T11:22:27.078Z,4.65
2023-01-19T11:25:04.830Z,4.47
2023-01-19T11:27:34.701Z,4.68
2023-01-19T11:30:01.853Z,4.85
2023-01-19T11:32:29.168Z,4.63
2023-01-19T11:34:55.872Z,4.61
2023-01-19T11:37:29.845Z,4.41
2023-01-19T11:39:58.113Z,4.65
2023-01-19T11:42:25.210Z,4.21
2023-01-19T11:44:51.822Z,4.49
2023-01-19T11:47:36.122Z,4.72
2023-01-19T11:50:07.281Z,4.69
2023-01-19T11:52:46.074Z,4.42
2023-01-19T11:55:37.076Z,4.62
2023-01-19T11:58:04.775Z,4.96
2023-01-19T12:00:38.420Z,5.18
2023-01-19T12:03:05.134Z,4.74
2023-01-19T12:05:34.065Z,5.03
2023-01-19T12:08:05.582Z,4.92
2023-01-19T12:10:36.542Z,4.85
2023-01-19T12:13:03.664Z,5.15
2023-01-19T12:15:30.246Z,5.04
2023-01-19T12:17:59.084Z,4.92
2023-01-19T12:20:35.956Z,5.09
2023-01-19T12:23:13.993Z,5.12
2023-01-19T12:25:44.040Z,4.96
2023-01-19T12:28:14.039Z,5.02
2023-01-19T12:30:41.872Z,4.79
2023-01-19T12:33:22.404Z,4.61
2023-01-19T12:36:00.933Z,4.87
2023-01-19T12:38:37.887Z,5.03
2023-01-19T12:41:19.877Z,4.56
2023-01-19T12:44:09.894Z,4.78
2023-01-19T12:46:39.574Z,4.56
2023-01-19T12:49:27.010Z,4.62
2023-01-19T12:52:14.822Z,4.37
2023-01-19T12:54:42.677Z,4.55
2023-01-19T12:57:25.134Z,4.78
2023-01-19T12:59:59.052Z,4.99
2023-01-19T13:02:28.695Z,4.86
2023-01-19T13:05:12.780Z,4.71
2023-01-19T13:07:58.128Z,4.49
2023-01-19T13:10:43.679Z,4.65
2023-01-19T13:13:19.578Z,4.80
2023-01-19T13:15:50.744Z,4.57
2023-01-19T13:18:24.826Z,4.73
2023-01-19T13:20:58.269Z,4.73
2023-01-19T13:23:29.085Z,4.36
2023-01-19T13:26:01.497Z,4.52
2023-01-19T13:28:45.180Z,4.64
2023-01-19T13:31:13.342Z,4.66
2023-01-19T13:33:53.264Z,4.92
2023-01-19T13:36:22.821Z,4.97
2023-01-19T13:38:51.011Z,5.12
2023-01-19T13:41:20.262Z,5.09
2023-01-19T13:43:47.872Z,5.13
2023-01-19T13:46:17.403Z,4.92
2023-01-19T13:48:52.889Z,5.10
2023-01-19T13:51:20.072Z,4.86
2023-01-19T13:53:59.128Z,4.75
2023-01-19T13:56:27.788Z,5.13
2023-01-19T13:59:02.307Z,5.07
2023-01-19T14:01:30.224Z,4.98
2023-01-19T14:03:57.145Z,5.00
2023-01-19T14:06:47.302Z,4.91
2023-01-19T14:09:16.926Z,4.80
2023-01-19T14:11:44.497Z,4.71
2023-01-19T14:14:24.044Z,4.75
2023-01-19T14:16:50.690Z,4.55
2023-01-19T14:19:17.830Z,4.74
2023-01-19T14:21:46.113Z,4.65
2023-01-19T14:24:20.575Z,4.74
2023-01-19T14:26:48.470Z,4.53
2023-01-19T14:29:32.943Z,4.42
2023-01-19T14:32:17.095Z,4.51
2023-01-19T14:34:46.959Z,4.37
2023-01-19T14:37:23.038Z,4.44
2023-01-19T14:39:51.291Z,4.62
2023-01-19T14:42:23.962Z,4.58
2023-01-19T14:44:52.104Z,4.56
2023-01-19T14:47:25.677Z,4.79
2023-01-19T14:49:52.753Z,4.47
2023-01-19T14:52:19.280Z,4.55
2023-01-19T14:54:46.128Z,4.46
2023-01-19T14:57:15.824Z,4.40
2023-01-19T14:59:47.412Z,4.27
2023-01-19T15:02:14.105Z,4.34
2023-01-19T15:04:41.871Z,4.41
2023-01-19T15:07:15.817Z,4.24
2023-01-19T15:09:42.444Z,4.25
2023-01-19T15:12:11.657Z,3.98
2023-01-19T15:14:38.420Z,3.98
2023-01-19T15:17:04.985Z,4.12
2023-01-19T15:19:31.571Z,4.09
2023-01-19T15:21:58.315Z,3.93
2023-01-19T15:24:25.029Z,3.95
2023-01-19T15:26:51.596Z,3.97
2023-01-19T15:29:21.479Z,3.96
2023-01-19T15:31:48.355Z,4.14
2023-01-19T15:34:15.051Z,4.20
2023-01-19T15:36:42.649Z,3.86
2023-01-19T15:39:10.650Z,3.91
2023-01-19T15:41:38.444Z,3.84
2023-01-19T15:44:06.291Z,4.08
2023-01-19T15:46:33.327Z,4.11
2023-01-19T15:49:00.654Z,3.95
2023-01-19T15:51:30.264Z,3.76
2023-01-19T15:53:56.920Z,4.01
2023-01-19T15:56:24.901Z,4.14
2023-01-19T15:58:54.741Z,4.01
2023-01-19T16:01:22.744Z,4.12
2023-01-19T16:03:50.121Z,4.05
2023-01-19T16:06:18.019Z,4.16
2023-01-19T16:08:45.150Z,4.21
2023-01-19T16:11:13.129Z,4.14
2023-01-19T16:13:40.164Z,4.06
2023-01-19T16:16:08.634Z,4.06
2023-01-19T16:18:35.340Z,4.16
2023-01-19T16:21:01.998Z,4.23
2023-01-19T16:23:28.667Z,4.14
2023-01-19T16:25:59.631Z,4.18
2023-01-19T16:28:27.001Z,4.15
2023-01-19T16:30:53.829Z,4.29
2023-01-19T16:33:20.497Z,4.04
2023-01-19T16:35:47.183Z,4.08
2023-01-19T16:38:17.325Z,3.99
2023-01-19T16:40:45.389Z,4.15
2023-01-19T16:43:12.904Z,3.99
2023-01-19T16:46:01.722Z,4.18
2023-01-19T16:48:28.898Z,4.09
2023-01-19T16:51:00.376Z,3.94
2023-01-19T16:53:27.675Z,4.00
2023-01-19T16:55:54.763Z,3.97
2023-01-19T16:58:21.801Z,3.86
2023-01-19T17:00:48.502Z,3.74
2023-01-19T17:03:22.540Z,3.74
2023-01-19T17:05:50.604Z,3.81
2023-01-19T17:08:20.492Z,3.66
2023-01-19T17:10:47.747Z,3.74
2023-01-19T17:13:16.788Z,3.49
2023-01-19T17:15:44.075Z,3.44
2023-01-19T17:18:10.735Z,3.49
2023-01-19T17:20:37.438Z,3.59
2023-01-19T17:23:04.181Z,3.49
2023-01-19T17:25:30.774Z,3.46
2023-01-19T17:27:58.536Z,3.39
2023-01-19T17:30:25.378Z,3.56
2023-01-19T17:32:52.085Z,3.57
2023-01-19T17:35:18.703Z,3.30
2023-01-19T17:37:45.319Z,3.30
2023-01-19T17:40:14.604Z,3.35
2023-01-19T17:42:41.921Z,3.40
2023-01-19T17:45:10.900Z,3.36
2023-01-19T17:47:38.129Z,3.18
2023-01-19T17:50:05.372Z,3.24
2023-01-19T17:52:34.952Z,3.35
2023-01-19T17:55:01.611Z,3.29
2023-01-19T17:57:28.186Z,3.22
2023-01-19T17:59:54.803Z,3.18
2023-01-19T18:02:24.501Z,3.18
2023-01-19T18:04:55.071Z,3.18
2023-01-19T18:07:21.767Z,3.16
2023-01-19T18:09:50.498Z,3.10
2023-01-19T18:12:18.852Z,3.09
2023-01-19T18:14:45.481Z,3.03
2023-01-19T18:17:12.107Z,3.06
2023-01-19T18:19:38.671Z,3.02
2023-01-19T18:22:12.665Z,2.83
2023-01-19T18:24:39.279Z,2.91
2023-01-19T18:27:06.507Z,2.99
2023-01-19T18:29:33.097Z,3.01
2023-01-19T18:31:59.690Z,2.95
2023-01-19T18:34:26.358Z,2.86
2023-01-19T18:36:52.953Z,2.86
2023-01-19T18:39:19.550Z,2.92
2023-01-19T18:41:46.231Z,2.95
2023-01-19T18:44:12.918Z,2.85
2023-01-19T18:46:39.743Z,2.85
2023-01-19T18:49:06.431Z,2.87
2023-01-19T18:51:33.263Z,2.75
2023-01-19T18:54:00.065Z,3.02
2023-01-19T18:56:26.804Z,2.85
2023-01-19T18:58:53.625Z,2.89
2023-01-19T19:01:23.465Z,2.94
2023-01-19T19:03:50.432Z,2.97
2023-01-19T19:06:20.557Z,2.98
2023-01-19T19:08:50.958Z,2.87
2023-01-19T19:11:18.422Z,2.89
2023-01-19T19:13:45.043Z,2.85
2023-01-19T19:16:12.908Z,2.78
2023-01-19T19:18:39.980Z,2.89
2023-01-19T19:21:07.598Z,2.82
2023-01-19T19:23:34.779Z,2.79
2023-01-19T19:26:03.099Z,2.87
2023-01-19T19:28:29.720Z,2.79
2023-01-19T19:31:07.510Z,2.99
2023-01-19T19:33:34.876Z,2.97
2023-01-19T19:36:01.668Z,2.89
2023-01-19T19:38:28.967Z,2.80
2023-01-19T19:40:57.795Z,2.66
2023-01-19T19:43:24.806Z,2.64
2023-01-19T19:45:59.521Z,2.81
2023-01-19T19:48:38.146Z,2.76
2023-01-19T19:51:18.106Z,2.46
2023-01-19T19:53:46.102Z,2.55
2023-01-19T19:56:15.642Z,2.57
2023-01-19T19:58:45.186Z,2.53
2023-01-19T20:01:19.793Z,2.42
2023-01-19T20:03:46.519Z,2.29
2023-01-19T20:06:21.433Z,2.15
2023-01-19T20:08:48.604Z,2.19
2023-01-19T20:11:17.005Z,2.33
2023-01-19T20:13:44.292Z,2.28
2023-01-19T20:16:12.738Z,2.12
2023-01-19T20:18:42.262Z,2.28
2023-01-19T20:21:36.060Z,2.35
2023-01-19T20:24:04.875Z,2.19
2023-01-19T20:26:32.963Z,2.35
2023-01-19T20:29:04.780Z,2.39
2023-01-19T20:31:33.933Z,2.39
2023-01-19T20:34:01.415Z,2.49
2023-01-19T20:36:29.026Z,2.53
2023-01-19T20:38:56.485Z,2.42
2023-01-19T20:41:23.343Z,2.39
2023-01-19T20:43:50.166Z,2.40
2023-01-19T20:46:16.865Z,2.38
2023-01-19T20:48:43.482Z,2.58
2023-01-19T20:51:12.890Z,2.56
2023-01-19T20:53:47.813Z,2.57
2023-01-19T20:56:17.122Z,2.30
2023-01-19T20:58:43.683Z,2.34
2023-01-19T21:01:16.525Z,2.23
2023-01-19T21:03:43.334Z,2.25
2023-01-19T21:06:10.347Z,2.20
2023-01-19T21:08:37.516Z,1.94
2023-01-19T21:11:04.845Z,2.00
2023-01-19T21:13:31.732Z,1.92
2023-01-19T21:15:58.705Z,1.76
2023-01-19T21:18:30.177Z,1.85
2023-01-19T21:20:59.849Z,1.79
2023-01-19T21:23:28.345Z,1.99
2023-01-19T21:25:59.356Z,1.90
2023-01-19T21:28:26.865Z,2.08
2023-01-19T21:30:53.966Z,1.96
2023-01-19T21:33:21.194Z,1.94
2023-01-19T21:35:55.240Z,2.12
2023-01-19T21:38:22.713Z,2.26
2023-01-19T21:40:50.527Z,2.05
2023-01-19T21:43:21.625Z,2.03
2023-01-19T21:45:48.958Z,2.19
2023-01-19T21:48:15.940Z,2.29
2023-01-19T21:50:42.988Z,2.28
2023-01-19T21:53:12.709Z,2.25
2023-01-19T21:55:43.027Z,2.29
2023-01-19T21:58:09.663Z,2.27
2023-01-19T22:00:36.309Z,2.30
2023-01-19T22:03:04.495Z,2.12
2023-01-19T22:05:36.704Z,2.25
2023-01-19T22:08:04.204Z,2.05
2023-01-19T22:10:30.784Z,2.11
2023-01-19T22:12:57.482Z,2.18
2023-01-19T22:15:24.100Z,2.35
2023-01-19T22:17:50.711Z,2.08
2023-01-19T22:20:19.554Z,2.01
2023-01-19T22:22:46.315Z,1.95
2023-01-19T22:25:13.138Z,1.91
2023-01-19T22:27:39.774Z,1.97
2023-01-19T22:30:06.678Z,2.06
2023-01-19T22:32:49.171Z,2.08
2023-01-19T22:35:16.475Z,2.12
2023-01-19T22:37:43.002Z,2.25
2023-01-19T22:40:09.996Z,2.30
2023-01-19T22:42:36.606Z,2.44
2023-01-19T22:45:03.273Z,2.35
2023-01-19T22:47:30.032Z,2.42
2023-01-19T22:49:56.690Z,2.36
2023-01-19T22:52:23.260Z,2.55
2023-01-19T22:54:49.909Z,2.29
2023-01-19T22:57:16.482Z,2.42
2023-01-19T22:59:43.739Z,2.47
2023-01-19T23:02:10.418Z,2.49
2023-01-19T23:04:37.240Z,2.23
2023-01-19T23:07:03.848Z,2.18
2023-01-19T23:09:30.615Z,2.20
2023-01-19T23:11:57.296Z,2.12
2023-01-19T23:14:23.991Z,2.23
2023-01-19T23:16:50.611Z,2.19
2023-01-19T23:19:17.713Z,1.99
2023-01-19T23:21:44.601Z,2.16
2023-01-19T23:24:11.883Z,2.07
2023-01-19T23:26:38.786Z,2.00
2023-01-19T23:29:11.165Z,2.01
2023-01-19T23:31:39.008Z,1.93
2023-01-19T23:34:07.619Z,1.95
2023-01-19T23:36:35.375Z,1.91
2023-01-19T23:39:05.864Z,1.77
2023-01-19T23:41:35.132Z,1.72
2023-01-19T23:44:01.909Z,1.91
2023-01-19T23:46:29.599Z,1.97
2023-01-19T23:48:56.260Z,2.16
2023-01-19T23:51:24.435Z,2.08
2023-01-19T23:53:51.901Z,1.97
2023-01-19T23:56:23.250Z,2.07
2023-01-19T23:59:01.804Z,2.15
